createdAt,value
2023-03-15T00:02:16.455Z,3.50
2023-03-15T00:04:44.378Z,4.80
2023-03-15T00:07:12.482Z,7.23
2023-03-15T00:09:40.325Z,4.47
2023-03-15T00:12:08.787Z,7.90
2023-03-15T00:14:39.307Z,6.47
2023-03-15T00:17:07.208Z,4.33
2023-03-15T00:19:35.114Z,4.37
2023-03-15T00:22:02.966Z,3.87
2023-03-15T00:24:30.854Z,2.70
2023-03-15T00:26:58.726Z,4.80
2023-03-15T00:29:26.653Z,8.60
2023-03-15T00:31:56.035Z,3.27
2023-03-15T00:34:26.552Z,4.30
2023-03-15T00:36:54.692Z,3.70
2023-03-15T00:39:25.713Z,3.80
2023-03-15T00:41:56.811Z,5.53
2023-03-15T00:44:25.287Z,2.50
2023-03-15T00:46:53.241Z,2.57
2023-03-15T00:49:22.544Z,2.90
2023-03-15T00:51:50.389Z,8.40
2023-03-15T00:54:18.240Z,7.10
2023-03-15T00:56:46.108Z,6.83
2023-03-15T00:59:13.944Z,7.20
2023-03-15T01:01:44.737Z,8.33
2023-03-15T01:04:12.970Z,4.90
2023-03-15T01:06:42.951Z,7.23
2023-03-15T01:09:10.981Z,4.80
2023-03-15T01:11:38.999Z,4.20
2023-03-15T01:14:08.816Z,3.30
2023-03-15T01:16:36.711Z,3.77
2023-03-15T01:19:05.114Z,4.17
2023-03-15T01:21:33.171Z,4.10
2023-03-15T01:24:02.413Z,7.10
2023-03-15T01:26:30.319Z,4.77
2023-03-15T01:28:58.202Z,9.77
2023-03-15T01:31:28.054Z,4.00
2023-03-15T01:33:56.071Z,3.83
2023-03-15T01:36:24.707Z,6.23
2023-03-15T01:38:53.839Z,2.40
2023-03-15T01:41:24.822Z,7.20
2023-03-15T01:43:52.985Z,4.17
2023-03-15T01:46:27.385Z,3.60
2023-03-15T01:49:01.555Z,3.70
2023-03-15T01:51:34.846Z,6.67
2023-03-15T01:54:08.723Z,6.83
2023-03-15T01:56:42.707Z,4.00
2023-03-15T01:59:16.312Z,8.27
2023-03-15T02:01:45.862Z,4.30
2023-03-15T02:04:18.977Z,3.67
2023-03-15T02:06:48.069Z,2.13
2023-03-15T02:09:19.386Z,3.33
2023-03-15T02:11:49.652Z,4.40
2023-03-15T02:14:18.092Z,3.00
2023-03-15T02:16:46.380Z,1.70
2023-03-15T02:19:35.752Z,2.57
2023-03-15T02:22:17.240Z,3.33
2023-03-15T02:24:55.748Z,5.13
2023-03-15T02:27:30.051Z,8.00
2023-03-15T02:29:58.350Z,8.53
2023-03-15T02:32:26.257Z,11.20
2023-03-15T02:34:54.141Z,6.83
2023-03-15T02:37:22.434Z,4.80
2023-03-15T02:39:50.300Z,8.73
2023-03-15T02:42:19.381Z,7.20
2023-03-15T02:44:50.156Z,4.20
2023-03-15T02:47:23.618Z,3.43
2023-03-15T02:49:53.746Z,11.23
2023-03-15T02:52:22.376Z,5.87
2023-03-15T02:54:50.264Z,8.83
2023-03-15T02:57:20.003Z,4.30
2023-03-15T02:59:50.724Z,2.57
2023-03-15T03:02:18.811Z,6.07
2023-03-15T03:04:46.756Z,3.67
2023-03-15T03:07:14.756Z,3.33
2023-03-15T03:09:42.713Z,3.10
2023-03-15T03:12:10.995Z,2.93
2023-03-15T03:14:38.828Z,8.53
2023-03-15T03:17:08.292Z,8.90
2023-03-15T03:19:36.129Z,7.43
2023-03-15T03:22:04.132Z,5.23
2023-03-15T03:24:32.362Z,7.10
2023-03-15T03:27:00.414Z,4.03
2023-03-15T03:29:28.379Z,3.20
2023-03-15T03:31:56.211Z,6.40
2023-03-15T03:34:25.367Z,5.07
2023-03-15T03:36:53.244Z,6.10
2023-03-15T03:39:21.101Z,5.30
2023-03-15T03:41:49.941Z,8.47
2023-03-15T03:44:18.054Z,5.37
2023-03-15T03:46:46.224Z,6.83
2023-03-15T03:49:14.749Z,5.70
2023-03-15T03:51:43.984Z,11.37
2023-03-15T03:54:11.813Z,8.73
2023-03-15T03:56:40.208Z,6.73
2023-03-15T03:59:08.097Z,5.80
2023-03-15T04:01:36.118Z,12.77
2023-03-15T04:04:04.320Z,7.43
2023-03-15T04:06:32.404Z,3.70
2023-03-15T04:09:03.803Z,7.67
2023-03-15T04:11:31.662Z,7.93
2023-03-15T04:13:59.492Z,7.20
2023-03-15T04:16:27.419Z,7.40
2023-03-15T04:18:56.336Z,6.10
2023-03-15T04:21:24.341Z,11.30
2023-03-15T04:23:52.227Z,5.23
2023-03-15T04:26:21.461Z,4.10
2023-03-15T04:28:49.329Z,3.87
2023-03-15T04:31:17.227Z,9.90
2023-03-15T04:33:45.114Z,10.53
2023-03-15T04:36:18.414Z,14.03
2023-03-15T04:38:47.466Z,4.17
2023-03-15T04:41:15.886Z,13.37
2023-03-15T04:43:45.397Z,11.63
2023-03-15T04:46:13.307Z,7.97
2023-03-15T04:48:41.628Z,7.63
2023-03-15T04:51:09.501Z,8.70
2023-03-15T04:53:38.981Z,11.00
2023-03-15T04:56:07.510Z,7.80
2023-03-15T04:58:35.345Z,11.90
2023-03-15T05:01:04.733Z,5.97
2023-03-15T05:03:32.628Z,9.50
2023-03-15T05:06:07.969Z,8.00
2023-03-15T05:08:36.556Z,6.90
2023-03-15T05:11:05.045Z,8.50
2023-03-15T05:13:33.368Z,9.07
2023-03-15T05:16:01.307Z,12.60
2023-03-15T05:18:30.725Z,9.40
2023-03-15T05:20:58.601Z,13.00
2023-03-15T05:23:27.272Z,8.70
2023-03-15T05:25:56.722Z,12.43
2023-03-15T05:28:25.753Z,17.10
2023-03-15T05:30:54.531Z,11.83
2023-03-15T05:33:22.955Z,11.13
2023-03-15T05:35:55.549Z,17.87
2023-03-15T05:38:26.689Z,24.70
2023-03-15T05:40:55.074Z,8.30
2023-03-15T05:43:23.057Z,10.03
2023-03-15T05:45:51.177Z,8.07
2023-03-15T05:48:19.060Z,9.70
2023-03-15T05:50:46.960Z,7.10
2023-03-15T05:53:16.114Z,9.13
2023-03-15T05:55:43.982Z,7.53
2023-03-15T05:58:11.875Z,12.50
2023-03-15T06:00:39.718Z,14.30
2023-03-15T06:03:07.576Z,11.80
2023-03-15T06:05:35.434Z,9.43
2023-03-15T06:08:03.306Z,9.20
2023-03-15T06:10:33.770Z,6.50
2023-03-15T06:13:01.744Z,8.80
2023-03-15T06:15:29.649Z,7.27
2023-03-15T06:17:57.458Z,9.97
2023-03-15T06:20:25.342Z,7.27
2023-03-15T06:22:53.369Z,8.10
2023-03-15T06:25:21.196Z,11.43
2023-03-15T06:27:50.440Z,7.93
2023-03-15T06:30:18.765Z,10.63
2023-03-15T06:32:46.716Z,7.73
2023-03-15T06:35:14.712Z,8.33
2023-03-15T06:37:42.841Z,10.10
2023-03-15T06:40:12.098Z,2.93
2023-03-15T06:42:41.602Z,13.80
2023-03-15T06:45:11.679Z,11.83
2023-03-15T06:47:39.827Z,12.13
2023-03-15T06:50:08.806Z,6.50
2023-03-15T06:52:36.697Z,8.67
2023-03-15T06:55:04.963Z,7.73
2023-03-15T06:57:33.162Z,7.90
2023-03-15T07:00:00.993Z,7.20
2023-03-15T07:02:37.013Z,4.87
2023-03-15T07:05:05.419Z,6.67
2023-03-15T07:07:33.303Z,5.93
2023-03-15T07:10:01.138Z,7.13
2023-03-15T07:12:28.993Z,6.73
2023-03-15T07:14:56.875Z,8.47
2023-03-15T07:17:24.702Z,7.80
2023-03-15T07:19:56.536Z,8.97
2023-03-15T07:22:25.230Z,3.73
2023-03-15T07:24:53.189Z,12.73
2023-03-15T07:27:21.103Z,5.67
2023-03-15T07:29:49.572Z,2.77
2023-03-15T07:32:17.509Z,5.93
2023-03-15T07:34:45.396Z,8.03
2023-03-15T07:37:14.907Z,4.57
2023-03-15T07:39:42.768Z,6.53
2023-03-15T07:42:11.501Z,6.20
2023-03-15T07:44:39.377Z,7.80
2023-03-15T07:47:07.740Z,9.40
2023-03-15T07:49:35.602Z,6.80
2023-03-15T07:52:03.552Z,6.57
2023-03-15T07:54:34.461Z,13.50
2023-03-15T07:57:02.411Z,10.27
2023-03-15T07:59:30.427Z,5.13
2023-03-15T08:02:00.218Z,7.17
2023-03-15T08:04:29.377Z,4.47
2023-03-15T08:06:57.428Z,4.20
2023-03-15T08:09:25.971Z,3.30
2023-03-15T08:11:55.152Z,13.40
2023-03-15T08:14:22.983Z,3.90
2023-03-15T08:16:51.514Z,4.47
2023-03-15T08:19:19.332Z,4.10
2023-03-15T08:21:47.950Z,10.93
2023-03-15T08:24:16.281Z,3.10
2023-03-15T08:26:44.241Z,5.30
2023-03-15T08:29:13.481Z,3.33
2023-03-15T08:31:41.646Z,3.73
2023-03-15T08:34:09.573Z,1.83
2023-03-15T08:36:37.448Z,2.83
2023-03-15T08:39:06.421Z,5.87
2023-03-15T08:41:34.574Z,2.67
2023-03-15T08:44:02.500Z,4.13
2023-03-15T08:46:33.153Z,2.07
2023-03-15T08:49:01.317Z,2.70
2023-03-15T08:51:31.000Z,9.47
2023-03-15T08:53:59.143Z,5.40
2023-03-15T08:56:27.555Z,7.50
2023-03-15T08:58:55.607Z,5.73
2023-03-15T09:01:23.530Z,4.60
2023-03-15T09:03:53.032Z,4.63
2023-03-15T09:06:45.641Z,3.00
2023-03-15T09:09:19.857Z,2.80
2023-03-15T09:12:20.028Z,6.60
2023-03-15T09:14:59.935Z,3.37
2023-03-15T09:17:44.555Z,4.60
2023-03-15T09:20:34.275Z,3.47
2023-03-15T09:23:16.080Z,5.73
2023-03-15T09:25:52.542Z,2.63
2023-03-15T09:28:34.686Z,4.10
2023-03-15T09:31:12.166Z,8.50
2023-03-15T09:33:49.744Z,2.93
2023-03-15T09:36:39.216Z,2.57
2023-03-15T09:39:21.416Z,4.30
2023-03-15T09:41:58.398Z,6.00
2023-03-15T09:44:56.922Z,2.40
2023-03-15T09:47:47.181Z,3.30
2023-03-15T09:50:33.583Z,10.13
2023-03-15T09:53:15.991Z,5.37
2023-03-15T09:55:54.939Z,7.53
2023-03-15T09:58:37.842Z,6.23
2023-03-15T10:01:21.556Z,3.60
2023-03-15T10:03:58.093Z,3.50
2023-03-15T10:06:41.609Z,3.17
2023-03-15T10:09:23.938Z,3.30
2023-03-15T10:12:09.701Z,3.30
2023-03-15T10:15:09.500Z,3.40
2023-03-15T10:18:02.044Z,3.07
2023-03-15T10:20:46.001Z,4.40
2023-03-15T10:23:22.477Z,3.80
2023-03-15T10:26:00.094Z,3.00
2023-03-15T10:28:38.785Z,4.60
2023-03-15T10:31:25.858Z,3.40
2023-03-15T10:34:06.770Z,3.13
2023-03-15T10:36:38.630Z,2.67
2023-03-15T10:39:16.431Z,5.30
2023-03-15T10:41:57.324Z,3.20
2023-03-15T10:44:32.664Z,3.97
2023-03-15T10:47:22.658Z,3.43
2023-03-15T10:50:08.520Z,5.83
2023-03-15T10:52:43.768Z,2.63
2023-03-15T10:55:32.624Z,3.83
2023-03-15T10:58:32.752Z,5.70
2023-03-15T11:01:34.646Z,3.70
2023-03-15T11:04:59.006Z,4.17
2023-03-15T11:07:37.523Z,3.47
2023-03-15T11:10:18.963Z,3.30
2023-03-15T11:12:49.738Z,3.50
2023-03-15T11:15:38.198Z,4.77
2023-03-15T11:18:25.729Z,8.50
2023-03-15T11:21:07.520Z,4.47
2023-03-15T11:23:44.304Z,4.30
2023-03-15T11:26:39.198Z,4.03
2023-03-15T11:29:24.054Z,4.57
2023-03-15T11:32:09.908Z,8.67
2023-03-15T11:34:53.709Z,4.00
2023-03-15T11:37:40.104Z,4.40
2023-03-15T11:40:20.658Z,4.17
2023-03-15T11:43:01.317Z,7.87
2023-03-15T11:45:53.198Z,4.33
2023-03-15T11:48:35.349Z,3.93
2023-03-15T11:51:13.188Z,3.73
2023-03-15T11:53:51.079Z,3.70
2023-03-15T11:56:47.419Z,3.90
2023-03-15T11:59:38.044Z,3.33
2023-03-15T12:02:43.034Z,3.07
2023-03-15T12:05:47.761Z,2.80
2023-03-15T12:08:48.112Z,2.60
2023-03-15T12:11:49.680Z,2.63
2023-03-15T12:14:44.469Z,4.37
2023-03-15T12:17:52.041Z,2.80
2023-03-15T12:20:42.569Z,3.90
2023-03-15T12:23:43.618Z,3.60
2023-03-15T12:26:48.165Z,2.67
2023-03-15T12:29:28.708Z,2.60
2023-03-15T12:32:17.259Z,4.53
2023-03-15T12:35:20.970Z,2.20
2023-03-15T12:38:02.253Z,2.77
2023-03-15T12:40:58.381Z,2.13
2023-03-15T12:43:58.195Z,1.60
2023-03-15T12:47:01.085Z,1.77
2023-03-15T12:49:37.557Z,1.90
2023-03-15T12:52:43.313Z,3.33
2023-03-15T12:55:43.338Z,2.30
2023-03-15T12:58:25.537Z,2.63
2023-03-15T13:01:23.549Z,1.90
2023-03-15T13:04:07.310Z,2.03
2023-03-15T13:07:03.799Z,2.27
2023-03-15T13:09:59.775Z,2.43
2023-03-15T13:12:45.260Z,2.30
2023-03-15T13:15:43.962Z,1.23
2023-03-15T13:18:40.739Z,2.63
2023-03-15T13:21:49.875Z,2.00
2023-03-15T13:24:23.514Z,1.43
2023-03-15T13:27:01.317Z,1.60
2023-03-15T13:29:32.558Z,1.20
2023-03-15T13:32:12.713Z,2.07
2023-03-15T13:34:41.876Z,1.30
2023-03-15T13:37:15.088Z,1.60
2023-03-15T13:39:55.586Z,1.33
2023-03-15T13:42:25.446Z,1.63
2023-03-15T13:45:13.137Z,1.70
2023-03-15T13:47:42.345Z,1.73
2023-03-15T13:50:16.029Z,1.13
2023-03-15T13:52:44.565Z,0.80
2023-03-15T13:55:15.288Z,0.70
2023-03-15T13:57:43.503Z,0.77
2023-03-15T14:00:17.627Z,1.17
2023-03-15T14:02:49.413Z,1.20
2023-03-15T14:05:20.125Z,0.77
2023-03-15T14:07:51.171Z,0.70
2023-03-15T14:10:31.965Z,0.73
2023-03-15T14:13:17.574Z,0.90
2023-03-15T14:15:48.417Z,3.30
2023-03-15T14:18:20.491Z,1.93
2023-03-15T14:20:54.373Z,1.53
2023-03-15T14:23:25.508Z,1.30
2023-03-15T14:25:54.759Z,2.43
2023-03-15T14:28:24.472Z,1.90
2023-03-15T14:30:57.056Z,2.27
2023-03-15T14:33:29.898Z,1.80
2023-03-15T14:36:01.095Z,4.60
2023-03-15T14:38:34.142Z,1.63
2023-03-15T14:41:26.615Z,1.80
2023-03-15T14:43:54.779Z,1.20
2023-03-15T14:46:24.230Z,2.10
2023-03-15T14:48:52.891Z,4.70
2023-03-15T14:51:23.099Z,1.70
2023-03-15T14:53:54.388Z,1.70
2023-03-15T14:56:22.212Z,1.60
2023-03-15T14:58:50.517Z,1.50
2023-03-15T15:01:22.423Z,1.50
2023-03-15T15:03:54.594Z,3.07
2023-03-15T15:06:22.865Z,3.50
2023-03-15T15:08:53.152Z,2.13
2023-03-15T15:11:21.053Z,1.77
2023-03-15T15:13:48.932Z,1.70
2023-03-15T15:16:16.848Z,1.30
2023-03-15T15:18:44.679Z,2.30
2023-03-15T15:21:17.501Z,5.63
2023-03-15T15:23:57.964Z,3.07
2023-03-15T15:26:29.100Z,2.60
2023-03-15T15:28:57.837Z,2.47
2023-03-15T15:31:27.293Z,3.30
2023-03-15T15:33:56.941Z,2.07
2023-03-15T15:36:30.474Z,1.70
2023-03-15T15:39:01.262Z,4.00
2023-03-15T15:41:31.487Z,5.07
2023-03-15T15:43:59.442Z,2.47
2023-03-15T15:46:27.407Z,2.60
2023-03-15T15:48:55.434Z,2.20
2023-03-15T15:51:41.641Z,1.00
2023-03-15T15:54:15.024Z,1.70
2023-03-15T15:56:49.138Z,1.60
2023-03-15T15:59:18.270Z,1.50
2023-03-15T16:01:59.410Z,2.10
2023-03-15T16:04:28.398Z,1.57
2023-03-15T16:06:59.889Z,2.07
2023-03-15T16:09:30.118Z,2.87
2023-03-15T16:11:58.339Z,0.80
2023-03-15T16:14:26.256Z,1.10
2023-03-15T16:16:54.159Z,0.80
2023-03-15T16:19:21.993Z,4.80
2023-03-15T16:21:54.312Z,1.30
2023-03-15T16:24:26.939Z,1.80
2023-03-15T16:26:59.881Z,0.93
2023-03-15T16:29:33.712Z,0.60
2023-03-15T16:32:15.996Z,1.37
2023-03-15T16:34:47.628Z,2.43
2023-03-15T16:37:17.583Z,1.53
2023-03-15T16:39:50.554Z,1.57
2023-03-15T16:42:19.827Z,0.90
2023-03-15T16:44:47.953Z,0.77
2023-03-15T16:47:15.766Z,1.43
2023-03-15T16:49:43.580Z,1.67
2023-03-15T16:52:13.186Z,1.20
2023-03-15T16:54:42.664Z,1.87
2023-03-15T16:57:20.051Z,3.60
2023-03-15T16:59:47.908Z,1.10
2023-03-15T17:02:19.012Z,0.90
2023-03-15T17:04:47.706Z,1.60
2023-03-15T17:07:17.056Z,0.93
2023-03-15T17:09:47.744Z,2.40
2023-03-15T17:12:23.408Z,1.33
2023-03-15T17:14:51.938Z,1.00
2023-03-15T17:17:19.786Z,1.70
2023-03-15T17:19:49.138Z,1.30
2023-03-15T17:22:17.805Z,1.13
2023-03-15T17:24:45.810Z,0.90
2023-03-15T17:27:22.791Z,1.07
2023-03-15T17:29:50.674Z,0.97
2023-03-15T17:32:18.577Z,0.87
2023-03-15T17:34:47.318Z,0.70
2023-03-15T17:37:15.858Z,0.90
2023-03-15T17:39:45.525Z,1.17
2023-03-15T17:42:14.550Z,1.40
2023-03-15T17:44:43.715Z,1.00
2023-03-15T17:47:12.665Z,1.07
2023-03-15T17:49:40.878Z,1.07
2023-03-15T17:52:15.173Z,1.03
2023-03-15T17:54:43.034Z,1.17
2023-03-15T17:57:12.956Z,1.73
2023-03-15T17:59:40.855Z,0.73
2023-03-15T18:02:16.287Z,1.57
2023-03-15T18:04:44.228Z,1.43
2023-03-15T18:07:12.127Z,0.83
2023-03-15T18:09:40.505Z,2.20
2023-03-15T18:12:10.967Z,1.20
2023-03-15T18:14:38.804Z,1.50
2023-03-15T18:17:06.657Z,0.80
2023-03-15T18:19:35.841Z,0.87
2023-03-15T18:22:03.837Z,1.33
2023-03-15T18:24:34.216Z,0.87
2023-03-15T18:27:02.630Z,1.00
2023-03-15T18:29:31.709Z,0.80
2023-03-15T18:31:59.669Z,1.20
2023-03-15T18:34:27.580Z,1.20
2023-03-15T18:36:56.768Z,1.13
2023-03-15T18:39:25.272Z,0.83
2023-03-15T18:41:53.121Z,1.40
2023-03-15T18:44:20.948Z,0.87
2023-03-15T18:46:48.776Z,1.70
2023-03-15T18:49:16.609Z,1.00
2023-03-15T18:51:44.536Z,1.37
2023-03-15T18:54:13.954Z,2.90
2023-03-15T18:56:43.211Z,1.43
2023-03-15T18:59:12.104Z,1.60
2023-03-15T19:01:39.976Z,1.20
2023-03-15T19:04:07.916Z,1.43
2023-03-15T19:06:35.798Z,1.27
2023-03-15T19:09:05.234Z,2.03
2023-03-15T19:11:38.196Z,1.20
2023-03-15T19:14:06.054Z,2.50
2023-03-15T19:16:34.133Z,1.33
2023-03-15T19:19:02.296Z,1.70
2023-03-15T19:21:30.158Z,1.63
2023-03-15T19:23:58.397Z,1.43
2023-03-15T19:26:26.473Z,1.53
2023-03-15T19:28:56.244Z,1.10
2023-03-15T19:31:24.279Z,1.30
2023-03-15T19:33:52.104Z,1.07
2023-03-15T19:36:20.028Z,2.00
2023-03-15T19:38:47.996Z,1.90
2023-03-15T19:41:15.860Z,1.87
2023-03-15T19:43:43.679Z,1.40
2023-03-15T19:46:13.955Z,3.47
2023-03-15T19:48:42.150Z,2.20
2023-03-15T19:51:10.019Z,1.90
2023-03-15T19:53:37.996Z,2.30
2023-03-15T19:56:07.127Z,2.57
2023-03-15T19:58:35.091Z,2.10
2023-03-15T20:01:02.970Z,1.73
2023-03-15T20:03:34.668Z,2.10
2023-03-15T20:06:06.654Z,2.30
2023-03-15T20:08:34.582Z,3.40
2023-03-15T20:11:03.963Z,2.87
2023-03-15T20:13:31.842Z,2.33
2023-03-15T20:15:59.831Z,2.97
2023-03-15T20:18:27.878Z,2.73
2023-03-15T20:20:57.030Z,6.37
2023-03-15T20:23:24.952Z,5.20
2023-03-15T20:25:52.904Z,3.63
2023-03-15T20:28:20.899Z,2.13
2023-03-15T20:30:48.778Z,4.00
2023-03-15T20:33:16.624Z,2.77
2023-03-15T20:35:44.796Z,2.33
2023-03-15T20:38:18.312Z,3.20
2023-03-15T20:40:46.172Z,2.80
2023-03-15T20:43:14.007Z,4.27
2023-03-15T20:45:42.222Z,2.70
2023-03-15T20:48:10.040Z,2.90
2023-03-15T20:50:38.158Z,2.97
2023-03-15T20:53:06.048Z,4.17
2023-03-15T20:55:35.249Z,2.50
2023-03-15T20:58:03.212Z,2.90
2023-03-15T21:00:31.781Z,4.83
2023-03-15T21:02:59.713Z,2.30
2023-03-15T21:05:28.902Z,3.73
2023-03-15T21:07:57.804Z,2.53
2023-03-15T21:10:25.848Z,1.90
2023-03-15T21:12:55.043Z,3.30
2023-03-15T21:15:24.153Z,2.80
2023-03-15T21:17:53.877Z,2.77
2023-03-15T21:20:22.018Z,3.37
2023-03-15T21:22:49.917Z,3.70
2023-03-15T21:25:18.064Z,2.60
2023-03-15T21:27:46.877Z,3.53
2023-03-15T21:30:16.313Z,2.80
2023-03-15T21:32:44.806Z,2.53
2023-03-15T21:35:13.257Z,4.20
2023-03-15T21:37:41.213Z,2.43
2023-03-15T21:40:10.244Z,3.57
2023-03-15T21:42:38.310Z,3.47
2023-03-15T21:45:08.100Z,4.07
2023-03-15T21:47:37.356Z,4.63
2023-03-15T21:50:05.929Z,2.70
2023-03-15T21:52:33.897Z,2.80
2023-03-15T21:55:02.047Z,3.00
2023-03-15T21:57:29.951Z,3.30
2023-03-15T21:59:57.811Z,3.17
2023-03-15T22:02:26.194Z,4.37
2023-03-15T22:04:55.404Z,2.90
2023-03-15T22:07:23.275Z,2.80
2023-03-15T22:09:53.075Z,2.93
2023-03-15T22:12:21.045Z,3.03
2023-03-15T22:14:56.814Z,2.63
2023-03-15T22:17:32.694Z,2.70
2023-03-15T22:20:02.045Z,2.83
2023-03-15T22:22:30.118Z,1.83
2023-03-15T22:24:57.952Z,5.33
2023-03-15T22:27:25.788Z,3.27
2023-03-15T22:29:53.645Z,2.73
2023-03-15T22:32:21.481Z,2.20
2023-03-15T22:34:49.308Z,4.27
2023-03-15T22:37:18.535Z,3.87
2023-03-15T22:39:46.390Z,4.00
2023-03-15T22:42:14.282Z,5.53
2023-03-15T22:44:42.105Z,3.40
2023-03-15T22:47:10.489Z,4.57
2023-03-15T22:49:38.482Z,4.70
2023-03-15T22:52:06.803Z,3.47
2023-03-15T22:54:35.968Z,3.10
2023-03-15T22:57:03.836Z,4.90
2023-03-15T22:59:31.670Z,2.43
2023-03-15T23:01:59.633Z,5.17
2023-03-15T23:04:27.541Z,1.97
2023-03-15T23:06:55.385Z,4.73
2023-03-15T23:09:23.228Z,2.50
2023-03-15T23:11:52.708Z,3.20
2023-03-15T23:14:20.662Z,5.43
2023-03-15T23:16:48.938Z,3.00
2023-03-15T23:19:16.875Z,3.00
2023-03-15T23:21:44.737Z,3.53
2023-03-15T23:24:13.882Z,5.13
2023-03-15T23:26:41.783Z,3.20
2023-03-15T23:29:11.519Z,3.90
2023-03-15T23:31:40.003Z,1.70
2023-03-15T23:34:08.208Z,2.53
2023-03-15T23:36:36.409Z,3.00
2023-03-15T23:39:04.322Z,2.70
2023-03-15T23:41:32.253Z,2.10
2023-03-15T23:44:00.134Z,2.47
2023-03-15T23:46:29.519Z,2.67
2023-03-15T23:48:57.379Z,1.50
2023-03-15T23:51:25.195Z,2.30
2023-03-15T23:53:53.014Z,2.27
2023-03-15T23:56:20.884Z,2.73
2023-03-15T23:58:48.684Z,2.23
